»·PEaware :: FSLCD KSNA-KBUR

FSLCD :: KSNA-KBUR

FLIGHT INFORMATION

Flight Status: Arrived
Operator: Unknown
More flights by this operator :: More flights under this callsign
Pilot: Gopalakrishna Pillai Sulekha S. (22834)
Aircraft: ROBIN DR-400
(DR40)
More flights by this aircraft type
Origin: KSNA John Wayne-Orange Co
United States
Destination: KBUR Bob Hope-Burbank
United States
More flights between these airports :: More routes between these airports
Route: CSTP1
File this flight plan on PilotEdge
Remarks: I3 RATING
Altitude:
(Current/Filed)
4,000ft
Speed:
(Current/Filed)
125kts
Departed: 09-Feb-19 05:25 PM
Arrived: 09-Feb-19 06:07 PM
Distance/Time
Traveled:
40nm/0:42
Distance/Time
To Go:
Arrived

Flight Plot

Page will automatically refresh every two minutes.

Flight plan parsing failed; only flown route is shown


Map Options




Map Legend


Flown Route
Filed Route
Departure Airport
Arrival Airport
Navaid (VOR, NDB)
Fix

Horizontal Profiles

Position Reports

Time Latitude Longitude Heading Altitude Ground
Speed
09-Feb-19 17:13 33.666709 -117.871858 316 52ft 0kts
09-Feb-19 17:13 33.666709 -117.871858 316 52ft 0kts
09-Feb-19 17:14 33.666709 -117.871858 316 52ft 0kts
09-Feb-19 17:16 33.666709 -117.871858 316 52ft 0kts
09-Feb-19 17:17 33.666709 -117.871858 316 52ft 0kts
09-Feb-19 17:17 33.666709 -117.871858 316 52ft 0kts
09-Feb-19 17:18 33.666709 -117.871858 316 52ft 0kts
09-Feb-19 17:19 33.668995 -117.871085 40 52ft 17kts
09-Feb-19 17:20 33.673403 -117.866994 9 46ft 15kts
09-Feb-19 17:21 33.677762 -117.864809 27 40ft 20kts
09-Feb-19 17:22 33.679965 -117.863651 306 39ft 0kts
09-Feb-19 17:23 33.679965 -117.863651 306 39ft 0kts
09-Feb-19 17:24 33.669731 -117.870744 208 436ft 93kts
09-Feb-19 17:25 33.648360 -117.892255 221 1597ft 107kts
09-Feb-19 17:26 33.624905 -117.917131 221 1997ft 110kts
09-Feb-19 17:27 33.603063 -117.940252 221 1999ft 103kts
09-Feb-19 17:28 33.581638 -117.962932 221 1999ft 102kts
09-Feb-19 17:29 33.561099 -117.986443 249 1997ft 102kts
09-Feb-19 17:30 33.565212 -118.017318 281 2911ft 95kts
09-Feb-19 17:31 33.575535 -118.046425 310 3955ft 101kts
09-Feb-19 17:32 33.602169 -118.064930 332 3996ft 102kts
09-Feb-19 17:33 33.625989 -118.081713 326 4003ft 104kts
09-Feb-19 17:34 33.651206 -118.102688 323 4000ft 113kts
09-Feb-19 17:35 33.676316 -118.125423 322 3999ft 111kts
09-Feb-19 17:36 33.700829 -118.147847 322 3999ft 110kts
09-Feb-19 17:37 33.725291 -118.170223 322 3999ft 110kts
09-Feb-19 17:38 33.749660 -118.192540 321 4000ft 110kts
09-Feb-19 17:39 33.772538 -118.217347 316 3999ft 110kts
09-Feb-19 17:40 33.794912 -118.242660 316 3999ft 110kts
09-Feb-19 17:41 33.817773 -118.267401 321 3999ft 110kts
09-Feb-19 17:42 33.842040 -118.289905 322 3999ft 110kts
09-Feb-19 17:43 33.866529 -118.312296 322 3999ft 110kts
09-Feb-19 17:44 33.890798 -118.335081 320 4000ft 110kts
09-Feb-19 17:45 33.913493 -118.359971 316 3999ft 110kts
09-Feb-19 17:46 33.936484 -118.384441 324 3999ft 110kts
09-Feb-19 17:47 33.960951 -118.406779 318 4000ft 110kts
09-Feb-19 17:48 33.984360 -118.430761 319 3999ft 110kts
09-Feb-19 17:49 34.008144 -118.454288 320 3999ft 110kts
09-Feb-19 17:50 34.033322 -118.475534 327 3999ft 110kts
09-Feb-19 17:51 34.057378 -118.494490 327 3996ft 94kts
09-Feb-19 17:52 34.075692 -118.516735 312 4004ft 103kts
09-Feb-19 17:53 34.095719 -118.543694 312 4000ft 110kts
09-Feb-19 17:54 34.116423 -118.571567 312 3999ft 111kts
09-Feb-19 17:55 34.136687 -118.598847 312 3999ft 108kts
09-Feb-19 17:56 34.156728 -118.625822 312 3999ft 108kts
09-Feb-19 17:57 34.178383 -118.641981 35 3989ft 82kts
09-Feb-19 17:58 34.183677 -118.615514 82 4003ft 90kts
09-Feb-19 17:59 34.188104 -118.584957 62 4000ft 94kts
09-Feb-19 18:00 34.200795 -118.553607 88 3088ft 90kts
09-Feb-19 18:01 34.199848 -118.528154 91 3014ft 95kts
09-Feb-19 18:02 34.199325 -118.490619 91 2759ft 121kts
09-Feb-19 18:03 34.198898 -118.452437 91 2167ft 104kts
09-Feb-19 18:04 34.198502 -118.417930 91 1617ft 96kts
09-Feb-19 18:05 34.198146 -118.388194 90 1144ft 84kts
09-Feb-19 18:06 34.197852 -118.364941 91 780ft 40kts
09-Feb-19 18:07 34.198370 -118.360228 1 780ft 0kts
09-Feb-19 18:08 34.198370 -118.360228 1 780ft 0kts
09-Feb-19 18:09 34.198370 -118.360228 1 780ft 0kts
09-Feb-19 18:10 34.198370 -118.360228 1 780ft 0kts
09-Feb-19 18:11 34.198370 -118.360228 1 780ft 0kts
09-Feb-19 18:12 34.198878 -118.359674 89 780ft 12kts
09-Feb-19 18:13 34.200337 -118.358885 251 780ft 0kts
09-Feb-19 18:14 34.200337 -118.358885 252 780ft 0kts

Navigation Log

Ident Type
Flight plan parsing failed, navigation log unavailable